sensor_id;sensor_type;location;lat;lon;timestamp;temperature;humidity
57410;DHT22;46044;44.738;20.394;2022-07-23T00:01:23;22.00;52.00
57410;DHT22;46044;44.738;20.394;2022-07-23T00:03:49;22.00;53.00
57410;DHT22;46044;44.738;20.394;2022-07-23T00:06:15;22.00;53.00
57410;DHT22;46044;44.738;20.394;2022-07-23T00:08:41;22.00;53.00
57410;DHT22;46044;44.738;20.394;2022-07-23T00:11:07;22.00;53.00
57410;DHT22;46044;44.738;20.394;2022-07-23T00:13:33;22.00;53.00
57410;DHT22;46044;44.738;20.394;2022-07-23T00:15:59;22.00;54.00
57410;DHT22;46044;44.738;20.394;2022-07-23T00:18:24;22.00;55.00
57410;DHT22;46044;44.738;20.394;2022-07-23T00:20:50;21.00;54.00
57410;DHT22;46044;44.738;20.394;2022-07-23T00:23:16;21.00;54.00
57410;DHT22;46044;44.738;20.394;2022-07-23T00:25:43;21.00;54.00
57410;DHT22;46044;44.738;20.394;2022-07-23T00:28:11;21.00;54.00
57410;DHT22;46044;44.738;20.394;2022-07-23T00:30:37;21.00;56.00
57410;DHT22;46044;44.738;20.394;2022-07-23T00:33:06;21.00;56.00
57410;DHT22;46044;44.738;20.394;2022-07-23T00:35:35;21.00;56.00
57410;DHT22;46044;44.738;20.394;2022-07-23T00:38:02;21.00;56.00
57410;DHT22;46044;44.738;20.394;2022-07-23T00:40:29;21.00;55.00
57410;DHT22;46044;44.738;20.394;2022-07-23T00:42:55;21.00;55.00
57410;DHT22;46044;44.738;20.394;2022-07-23T00:45:21;21.00;54.00
57410;DHT22;46044;44.738;20.394;2022-07-23T00:47:47;21.00;55.00
57410;DHT22;46044;44.738;20.394;2022-07-23T00:50:13;21.00;56.00
57410;DHT22;46044;44.738;20.394;2022-07-23T00:52:40;21.00;55.00
57410;DHT22;46044;44.738;20.394;2022-07-23T00:55:07;21.00;54.00
57410;DHT22;46044;44.738;20.394;2022-07-23T00:57:33;21.00;53.00
57410;DHT22;46044;44.738;20.394;2022-07-23T00:59:59;22.00;53.00
57410;DHT22;46044;44.738;20.394;2022-07-23T01:02:26;22.00;53.00
57410;DHT22;46044;44.738;20.394;2022-07-23T01:04:52;22.00;53.00
57410;DHT22;46044;44.738;20.394;2022-07-23T01:07:18;22.00;54.00
57410;DHT22;46044;44.738;20.394;2022-07-23T01:09:44;22.00;54.00
57410;DHT22;46044;44.738;20.394;2022-07-23T01:12:11;22.00;54.00
57410;DHT22;46044;44.738;20.394;2022-07-23T01:14:36;21.00;54.00
57410;DHT22;46044;44.738;20.394;2022-07-23T01:17:02;21.00;55.00
57410;DHT22;46044;44.738;20.394;2022-07-23T01:19:28;21.00;55.00
57410;DHT22;46044;44.738;20.394;2022-07-23T01:21:55;21.00;55.00
57410;DHT22;46044;44.738;20.394;2022-07-23T01:24:22;21.00;55.00
57410;DHT22;46044;44.738;20.394;2022-07-23T01:26:48;21.00;56.00
57410;DHT22;46044;44.738;20.394;2022-07-23T01:29:15;21.00;56.00
57410;DHT22;46044;44.738;20.394;2022-07-23T01:31:42;21.00;56.00
57410;DHT22;46044;44.738;20.394;2022-07-23T01:34:08;21.00;57.00
57410;DHT22;46044;44.738;20.394;2022-07-23T01:36:34;21.00;58.00
57410;DHT22;46044;44.738;20.394;2022-07-23T01:39:01;21.00;58.00
57410;DHT22;46044;44.738;20.394;2022-07-23T01:41:26;20.00;58.00
57410;DHT22;46044;44.738;20.394;2022-07-23T01:43:52;20.00;58.00
57410;DHT22;46044;44.738;20.394;2022-07-23T01:46:18;20.00;58.00
57410;DHT22;46044;44.738;20.394;2022-07-23T01:48:43;20.00;58.00
57410;DHT22;46044;44.738;20.394;2022-07-23T01:51:09;20.00;59.00
57410;DHT22;46044;44.738;20.394;2022-07-23T01:53:35;20.00;59.00
57410;DHT22;46044;44.738;20.394;2022-07-23T01:56:01;20.00;60.00
57410;DHT22;46044;44.738;20.394;2022-07-23T01:58:27;20.00;60.00
57410;DHT22;46044;44.738;20.394;2022-07-23T02:00:53;20.00;61.00
57410;DHT22;46044;44.738;20.394;2022-07-23T02:03:19;19.00;60.00
57410;DHT22;46044;44.738;20.394;2022-07-23T02:05:45;19.00;61.00
57410;DHT22;46044;44.738;20.394;2022-07-23T02:08:11;19.00;61.00
57410;DHT22;46044;44.738;20.394;2022-07-23T02:10:36;19.00;60.00
57410;DHT22;46044;44.738;20.394;2022-07-23T02:13:02;19.00;61.00
57410;DHT22;46044;44.738;20.394;2022-07-23T02:15:28;19.00;61.00
57410;DHT22;46044;44.738;20.394;2022-07-23T02:17:54;19.00;60.00
57410;DHT22;46044;44.738;20.394;2022-07-23T02:20:21;20.00;59.00
57410;DHT22;46044;44.738;20.394;2022-07-23T02:22:47;20.00;58.00
57410;DHT22;46044;44.738;20.394;2022-07-23T02:25:13;20.00;57.00
57410;DHT22;46044;44.738;20.394;2022-07-23T02:27:39;20.00;57.00
57410;DHT22;46044;44.738;20.394;2022-07-23T02:30:05;20.00;58.00
57410;DHT22;46044;44.738;20.394;2022-07-23T02:32:31;20.00;58.00
57410;DHT22;46044;44.738;20.394;2022-07-23T02:34:56;20.00;57.00
57410;DHT22;46044;44.738;20.394;2022-07-23T02:37:22;20.00;57.00
57410;DHT22;46044;44.738;20.394;2022-07-23T02:39:48;20.00;57.00
57410;DHT22;46044;44.738;20.394;2022-07-23T02:42:14;20.00;57.00
57410;DHT22;46044;44.738;20.394;2022-07-23T02:44:40;20.00;57.00
57410;DHT22;46044;44.738;20.394;2022-07-23T02:47:06;21.00;58.00
57410;DHT22;46044;44.738;20.394;2022-07-23T02:49:32;20.00;57.00
57410;DHT22;46044;44.738;20.394;2022-07-23T02:51:57;20.00;57.00
57410;DHT22;46044;44.738;20.394;2022-07-23T02:54:23;20.00;57.00
57410;DHT22;46044;44.738;20.394;2022-07-23T02:56:49;20.00;58.00
57410;DHT22;46044;44.738;20.394;2022-07-23T02:59:17;20.00;58.00
57410;DHT22;46044;44.738;20.394;2022-07-23T03:01:43;20.00;59.00
57410;DHT22;46044;44.738;20.394;2022-07-23T03:04:09;20.00;59.00
57410;DHT22;46044;44.738;20.394;2022-07-23T03:06:35;20.00;60.00
57410;DHT22;46044;44.738;20.394;2022-07-23T03:09:02;20.00;60.00
57410;DHT22;46044;44.738;20.394;2022-07-23T03:11:27;20.00;60.00
57410;DHT22;46044;44.738;20.394;2022-07-23T03:13:53;20.00;60.00
57410;DHT22;46044;44.738;20.394;2022-07-23T03:16:19;20.00;60.00
57410;DHT22;46044;44.738;20.394;2022-07-23T03:18:44;20.00;60.00
57410;DHT22;46044;44.738;20.394;2022-07-23T03:21:10;20.00;60.00
57410;DHT22;46044;44.738;20.394;2022-07-23T03:23:36;20.00;60.00
57410;DHT22;46044;44.738;20.394;2022-07-23T03:26:02;20.00;60.00
57410;DHT22;46044;44.738;20.394;2022-07-23T03:28:27;20.00;60.00
57410;DHT22;46044;44.738;20.394;2022-07-23T03:30:53;20.00;60.00
57410;DHT22;46044;44.738;20.394;2022-07-23T03:33:20;20.00;60.00
57410;DHT22;46044;44.738;20.394;2022-07-23T03:35:47;20.00;60.00
57410;DHT22;46044;44.738;20.394;2022-07-23T03:38:13;20.00;60.00
57410;DHT22;46044;44.738;20.394;2022-07-23T03:40:39;20.00;59.00
57410;DHT22;46044;44.738;20.394;2022-07-23T03:43:05;20.00;59.00
57410;DHT22;46044;44.738;20.394;2022-07-23T03:45:31;20.00;60.00
57410;DHT22;46044;44.738;20.394;2022-07-23T03:47:56;20.00;60.00
57410;DHT22;46044;44.738;20.394;2022-07-23T03:50:22;20.00;60.00
57410;DHT22;46044;44.738;20.394;2022-07-23T03:52:48;20.00;61.00
57410;DHT22;46044;44.738;20.394;2022-07-23T03:55:14;20.00;60.00
57410;DHT22;46044;44.738;20.394;2022-07-23T03:57:41;20.00;60.00
57410;DHT22;46044;44.738;20.394;2022-07-23T04:00:08;21.00;61.00
57410;DHT22;46044;44.738;20.394;2022-07-23T04:02:35;21.00;60.00
57410;DHT22;46044;44.738;20.394;2022-07-23T04:05:01;22.00;60.00
57410;DHT22;46044;44.738;20.394;2022-07-23T04:07:27;22.00;59.00
57410;DHT22;46044;44.738;20.394;2022-07-23T04:09:53;22.00;58.00
57410;DHT22;46044;44.738;20.394;2022-07-23T04:12:19;22.00;61.00
57410;DHT22;46044;44.738;20.394;2022-07-23T04:14:44;22.00;59.00
57410;DHT22;46044;44.738;20.394;2022-07-23T04:17:11;22.00;59.00
57410;DHT22;46044;44.738;20.394;2022-07-23T04:19:37;22.00;59.00
57410;DHT22;46044;44.738;20.394;2022-07-23T04:22:08;22.00;58.00
57410;DHT22;46044;44.738;20.394;2022-07-23T04:24:34;23.00;56.00
57410;DHT22;46044;44.738;20.394;2022-07-23T04:27:00;23.00;56.00
57410;DHT22;46044;44.738;20.394;2022-07-23T04:29:26;23.00;57.00
57410;DHT22;46044;44.738;20.394;2022-07-23T04:31:51;23.00;58.00
57410;DHT22;46044;44.738;20.394;2022-07-23T04:34:17;23.00;58.00
57410;DHT22;46044;44.738;20.394;2022-07-23T04:36:43;23.00;59.00
57410;DHT22;46044;44.738;20.394;2022-07-23T04:39:09;24.00;58.00
57410;DHT22;46044;44.738;20.394;2022-07-23T04:41:34;24.00;58.00
57410;DHT22;46044;44.738;20.394;2022-07-23T04:44:01;24.00;57.00
57410;DHT22;46044;44.738;20.394;2022-07-23T04:46:27;24.00;56.00
57410;DHT22;46044;44.738;20.394;2022-07-23T04:48:53;25.00;55.00
57410;DHT22;46044;44.738;20.394;2022-07-23T04:51:19;26.00;54.00
57410;DHT22;46044;44.738;20.394;2022-07-23T04:53:44;26.00;52.00
57410;DHT22;46044;44.738;20.394;2022-07-23T04:56:10;27.00;52.00
57410;DHT22;46044;44.738;20.394;2022-07-23T04:58:36;27.00;51.00
57410;DHT22;46044;44.738;20.394;2022-07-23T05:01:02;27.00;51.00
57410;DHT22;46044;44.738;20.394;2022-07-23T05:03:28;27.00;51.00
57410;DHT22;46044;44.738;20.394;2022-07-23T05:05:53;27.00;50.00
57410;DHT22;46044;44.738;20.394;2022-07-23T05:08:19;28.00;51.00
57410;DHT22;46044;44.738;20.394;2022-07-23T05:10:45;28.00;49.00
57410;DHT22;46044;44.738;20.394;2022-07-23T05:13:11;29.00;49.00
57410;DHT22;46044;44.738;20.394;2022-07-23T05:15:36;30.00;45.00
57410;DHT22;46044;44.738;20.394;2022-07-23T05:18:02;33.00;40.00
57410;DHT22;46044;44.738;20.394;2022-07-23T05:20:28;34.00;37.00
57410;DHT22;46044;44.738;20.394;2022-07-23T05:22:54;33.00;37.00
57410;DHT22;46044;44.738;20.394;2022-07-23T05:25:19;33.00;40.00
57410;DHT22;46044;44.738;20.394;2022-07-23T05:27:48;32.00;41.00
57410;DHT22;46044;44.738;20.394;2022-07-23T05:30:13;31.00;43.00
57410;DHT22;46044;44.738;20.394;2022-07-23T05:32:39;31.00;45.00
57410;DHT22;46044;44.738;20.394;2022-07-23T05:35:06;31.00;44.00
57410;DHT22;46044;44.738;20.394;2022-07-23T05:37:32;31.00;42.00
57410;DHT22;46044;44.738;20.394;2022-07-23T05:40:05;32.00;40.00
57410;DHT22;46044;44.738;20.394;2022-07-23T05:42:33;32.00;39.00
57410;DHT22;46044;44.738;20.394;2022-07-23T05:44:59;31.00;40.00
57410;DHT22;46044;44.738;20.394;2022-07-23T05:47:25;31.00;41.00
57410;DHT22;46044;44.738;20.394;2022-07-23T05:49:51;30.00;41.00
57410;DHT22;46044;44.738;20.394;2022-07-23T05:52:16;31.00;42.00
57410;DHT22;46044;44.738;20.394;2022-07-23T05:54:42;33.00;39.00
57410;DHT22;46044;44.738;20.394;2022-07-23T05:57:08;34.00;36.00
57410;DHT22;46044;44.738;20.394;2022-07-23T05:59:34;34.00;34.00
57410;DHT22;46044;44.738;20.394;2022-07-23T06:01:59;34.00;35.00
57410;DHT22;46044;44.738;20.394;2022-07-23T06:04:25;33.00;37.00
57410;DHT22;46044;44.738;20.394;2022-07-23T06:06:51;33.00;39.00
57410;DHT22;46044;44.738;20.394;2022-07-23T06:09:17;32.00;39.00
57410;DHT22;46044;44.738;20.394;2022-07-23T06:11:43;32.00;39.00
57410;DHT22;46044;44.738;20.394;2022-07-23T06:14:09;32.00;41.00
57410;DHT22;46044;44.738;20.394;2022-07-23T06:16:35;32.00;40.00
57410;DHT22;46044;44.738;20.394;2022-07-23T06:19:00;32.00;40.00
57410;DHT22;46044;44.738;20.394;2022-07-23T06:21:26;32.00;39.00
57410;DHT22;46044;44.738;20.394;2022-07-23T06:23:52;32.00;39.00
57410;DHT22;46044;44.738;20.394;2022-07-23T06:26:18;32.00;39.00
57410;DHT22;46044;44.738;20.394;2022-07-23T06:28:43;32.00;40.00
57410;DHT22;46044;44.738;20.394;2022-07-23T06:31:09;32.00;40.00
57410;DHT22;46044;44.738;20.394;2022-07-23T06:33:35;32.00;40.00
57410;DHT22;46044;44.738;20.394;2022-07-23T06:36:00;31.00;40.00
57410;DHT22;46044;44.738;20.394;2022-07-23T06:38:26;31.00;40.00
57410;DHT22;46044;44.738;20.394;2022-07-23T06:40:52;32.00;41.00
57410;DHT22;46044;44.738;20.394;2022-07-23T06:43:17;32.00;41.00
57410;DHT22;46044;44.738;20.394;2022-07-23T06:45:43;32.00;41.00
57410;DHT22;46044;44.738;20.394;2022-07-23T06:48:09;32.00;41.00
57410;DHT22;46044;44.738;20.394;2022-07-23T06:50:34;32.00;40.00
57410;DHT22;46044;44.738;20.394;2022-07-23T06:53:00;32.00;39.00
57410;DHT22;46044;44.738;20.394;2022-07-23T06:55:26;34.00;38.00
57410;DHT22;46044;44.738;20.394;2022-07-23T06:57:52;34.00;38.00
57410;DHT22;46044;44.738;20.394;2022-07-23T07:00:18;33.00;40.00
57410;DHT22;46044;44.738;20.394;2022-07-23T07:02:43;33.00;40.00
57410;DHT22;46044;44.738;20.394;2022-07-23T07:05:09;33.00;39.00
57410;DHT22;46044;44.738;20.394;2022-07-23T07:07:35;33.00;41.00
57410;DHT22;46044;44.738;20.394;2022-07-23T07:10:02;33.00;40.00
57410;DHT22;46044;44.738;20.394;2022-07-23T07:12:28;33.00;40.00
57410;DHT22;46044;44.738;20.394;2022-07-23T07:14:54;33.00;41.00
57410;DHT22;46044;44.738;20.394;2022-07-23T07:17:20;33.00;41.00
57410;DHT22;46044;44.738;20.394;2022-07-23T07:19:45;33.00;39.00
57410;DHT22;46044;44.738;20.394;2022-07-23T07:22:11;33.00;39.00
57410;DHT22;46044;44.738;20.394;2022-07-23T07:24:37;33.00;39.00
57410;DHT22;46044;44.738;20.394;2022-07-23T07:27:03;33.00;40.00
57410;DHT22;46044;44.738;20.394;2022-07-23T07:29:28;33.00;39.00
57410;DHT22;46044;44.738;20.394;2022-07-23T07:31:54;33.00;38.00
57410;DHT22;46044;44.738;20.394;2022-07-23T07:34:20;33.00;38.00
57410;DHT22;46044;44.738;20.394;2022-07-23T07:36:46;33.00;38.00
57410;DHT22;46044;44.738;20.394;2022-07-23T07:39:11;33.00;38.00
57410;DHT22;46044;44.738;20.394;2022-07-23T07:41:37;33.00;38.00
57410;DHT22;46044;44.738;20.394;2022-07-23T07:44:03;33.00;38.00
57410;DHT22;46044;44.738;20.394;2022-07-23T07:46:30;33.00;37.00
57410;DHT22;46044;44.738;20.394;2022-07-23T07:48:56;33.00;37.00
57410;DHT22;46044;44.738;20.394;2022-07-23T07:51:21;33.00;36.00
57410;DHT22;46044;44.738;20.394;2022-07-23T07:53:47;33.00;36.00
57410;DHT22;46044;44.738;20.394;2022-07-23T07:56:13;33.00;36.00
57410;DHT22;46044;44.738;20.394;2022-07-23T07:58:39;33.00;37.00
57410;DHT22;46044;44.738;20.394;2022-07-23T08:01:05;34.00;37.00
57410;DHT22;46044;44.738;20.394;2022-07-23T08:03:30;34.00;37.00
57410;DHT22;46044;44.738;20.394;2022-07-23T08:05:56;35.00;34.00
57410;DHT22;46044;44.738;20.394;2022-07-23T08:08:22;34.00;34.00
57410;DHT22;46044;44.738;20.394;2022-07-23T08:10:48;34.00;34.00
57410;DHT22;46044;44.738;20.394;2022-07-23T08:13:14;34.00;35.00
57410;DHT22;46044;44.738;20.394;2022-07-23T08:15:41;33.00;35.00
57410;DHT22;46044;44.738;20.394;2022-07-23T08:18:08;33.00;35.00
57410;DHT22;46044;44.738;20.394;2022-07-23T08:20:33;33.00;35.00
57410;DHT22;46044;44.738;20.394;2022-07-23T08:23:04;33.00;34.00
57410;DHT22;46044;44.738;20.394;2022-07-23T08:25:36;33.00;37.00
57410;DHT22;46044;44.738;20.394;2022-07-23T08:28:04;33.00;37.00
57410;DHT22;46044;44.738;20.394;2022-07-23T08:30:31;33.00;35.00
57410;DHT22;46044;44.738;20.394;2022-07-23T08:33:06;33.00;33.00
57410;DHT22;46044;44.738;20.394;2022-07-23T08:35:47;33.00;33.00
57410;DHT22;46044;44.738;20.394;2022-07-23T08:38:15;33.00;34.00
57410;DHT22;46044;44.738;20.394;2022-07-23T08:40:43;33.00;34.00
57410;DHT22;46044;44.738;20.394;2022-07-23T08:43:18;33.00;35.00
57410;DHT22;46044;44.738;20.394;2022-07-23T08:45:46;33.00;36.00
57410;DHT22;46044;44.738;20.394;2022-07-23T08:48:20;33.00;34.00
57410;DHT22;46044;44.738;20.394;2022-07-23T08:50:49;33.00;33.00
57410;DHT22;46044;44.738;20.394;2022-07-23T08:53:16;33.00;33.00
57410;DHT22;46044;44.738;20.394;2022-07-23T08:55:46;34.00;34.00
57410;DHT22;46044;44.738;20.394;2022-07-23T08:58:12;33.00;32.00
57410;DHT22;46044;44.738;20.394;2022-07-23T09:00:38;33.00;33.00
57410;DHT22;46044;44.738;20.394;2022-07-23T09:03:04;33.00;34.00
57410;DHT22;46044;44.738;20.394;2022-07-23T09:05:30;33.00;34.00
57410;DHT22;46044;44.738;20.394;2022-07-23T09:10:54;34.00;33.00
57410;DHT22;46044;44.738;20.394;2022-07-23T09:15:53;36.00;33.00
57410;DHT22;46044;44.738;20.394;2022-07-23T09:18:27;36.00;32.00
57410;DHT22;46044;44.738;20.394;2022-07-23T09:23:38;36.00;32.00
57410;DHT22;46044;44.738;20.394;2022-07-23T09:26:18;37.00;32.00
57410;DHT22;46044;44.738;20.394;2022-07-23T09:28:53;37.00;31.00
57410;DHT22;46044;44.738;20.394;2022-07-23T09:31:19;37.00;30.00
57410;DHT22;46044;44.738;20.394;2022-07-23T09:33:45;37.00;30.00
57410;DHT22;46044;44.738;20.394;2022-07-23T09:36:11;37.00;28.00
57410;DHT22;46044;44.738;20.394;2022-07-23T09:38:48;37.00;30.00
57410;DHT22;46044;44.738;20.394;2022-07-23T09:41:15;37.00;31.00
57410;DHT22;46044;44.738;20.394;2022-07-23T09:43:44;37.00;30.00
57410;DHT22;46044;44.738;20.394;2022-07-23T09:48:50;38.00;29.00
57410;DHT22;46044;44.738;20.394;2022-07-23T09:51:17;37.00;29.00
57410;DHT22;46044;44.738;20.394;2022-07-23T09:54:06;37.00;28.00
57410;DHT22;46044;44.738;20.394;2022-07-23T09:56:46;38.00;30.00
57410;DHT22;46044;44.738;20.394;2022-07-23T09:59:14;38.00;28.00
57410;DHT22;46044;44.738;20.394;2022-07-23T10:01:44;38.00;28.00
57410;DHT22;46044;44.738;20.394;2022-07-23T10:04:11;38.00;28.00
57410;DHT22;46044;44.738;20.394;2022-07-23T10:06:39;38.00;28.00
57410;DHT22;46044;44.738;20.394;2022-07-23T10:09:05;38.00;28.00
57410;DHT22;46044;44.738;20.394;2022-07-23T10:11:31;38.00;27.00
57410;DHT22;46044;44.738;20.394;2022-07-23T10:13:58;38.00;26.00
57410;DHT22;46044;44.738;20.394;2022-07-23T10:16:26;38.00;27.00
57410;DHT22;46044;44.738;20.394;2022-07-23T10:18:52;38.00;27.00
57410;DHT22;46044;44.738;20.394;2022-07-23T10:21:34;38.00;27.00
57410;DHT22;46044;44.738;20.394;2022-07-23T10:30:06;38.00;26.00
57410;DHT22;46044;44.738;20.394;2022-07-23T10:38:12;38.00;27.00
57410;DHT22;46044;44.738;20.394;2022-07-23T10:40:59;38.00;25.00
57410;DHT22;46044;44.738;20.394;2022-07-23T10:43:25;38.00;26.00
57410;DHT22;46044;44.738;20.394;2022-07-23T10:45:52;38.00;27.00
57410;DHT22;46044;44.738;20.394;2022-07-23T10:48:25;38.00;26.00
57410;DHT22;46044;44.738;20.394;2022-07-23T10:51:11;38.00;27.00
57410;DHT22;46044;44.738;20.394;2022-07-23T10:56:17;38.00;27.00
57410;DHT22;46044;44.738;20.394;2022-07-23T10:59:05;38.00;26.00
57410;DHT22;46044;44.738;20.394;2022-07-23T11:01:38;38.00;27.00
57410;DHT22;46044;44.738;20.394;2022-07-23T11:04:05;38.00;27.00
57410;DHT22;46044;44.738;20.394;2022-07-23T11:09:40;38.00;27.00
57410;DHT22;46044;44.738;20.394;2022-07-23T11:15:14;38.00;25.00
57410;DHT22;46044;44.738;20.394;2022-07-23T11:25:11;38.00;25.00
57410;DHT22;46044;44.738;20.394;2022-07-23T11:27:38;38.00;27.00
57410;DHT22;46044;44.738;20.394;2022-07-23T11:30:05;39.00;26.00
57410;DHT22;46044;44.738;20.394;2022-07-23T11:32:34;38.00;25.00
57410;DHT22;46044;44.738;20.394;2022-07-23T11:35:01;39.00;26.00
57410;DHT22;46044;44.738;20.394;2022-07-23T11:37:41;39.00;24.00
57410;DHT22;46044;44.738;20.394;2022-07-23T11:40:08;39.00;24.00
57410;DHT22;46044;44.738;20.394;2022-07-23T11:42:39;38.00;24.00
57410;DHT22;46044;44.738;20.394;2022-07-23T11:45:15;38.00;24.00
57410;DHT22;46044;44.738;20.394;2022-07-23T11:47:41;38.00;26.00
57410;DHT22;46044;44.738;20.394;2022-07-23T11:50:07;39.00;27.00
57410;DHT22;46044;44.738;20.394;2022-07-23T11:52:33;39.00;26.00
57410;DHT22;46044;44.738;20.394;2022-07-23T11:55:03;39.00;26.00
57410;DHT22;46044;44.738;20.394;2022-07-23T11:57:32;39.00;25.00
57410;DHT22;46044;44.738;20.394;2022-07-23T12:00:21;39.00;24.00
57410;DHT22;46044;44.738;20.394;2022-07-23T12:02:57;39.00;24.00
57410;DHT22;46044;44.738;20.394;2022-07-23T12:05:28;39.00;25.00
57410;DHT22;46044;44.738;20.394;2022-07-23T12:07:55;39.00;25.00
57410;DHT22;46044;44.738;20.394;2022-07-23T12:10:36;39.00;24.00
57410;DHT22;46044;44.738;20.394;2022-07-23T12:13:13;39.00;24.00
57410;DHT22;46044;44.738;20.394;2022-07-23T12:15:47;39.00;22.00
57410;DHT22;46044;44.738;20.394;2022-07-23T12:18:19;39.00;22.00
57410;DHT22;46044;44.738;20.394;2022-07-23T12:20:51;39.00;23.00
57410;DHT22;46044;44.738;20.394;2022-07-23T12:23:21;39.00;21.00
57410;DHT22;46044;44.738;20.394;2022-07-23T12:25:49;39.00;23.00
57410;DHT22;46044;44.738;20.394;2022-07-23T12:28:31;39.00;22.00
57410;DHT22;46044;44.738;20.394;2022-07-23T12:30:59;39.00;20.00
57410;DHT22;46044;44.738;20.394;2022-07-23T12:33:26;39.00;19.00
57410;DHT22;46044;44.738;20.394;2022-07-23T12:35:55;39.00;20.00
57410;DHT22;46044;44.738;20.394;2022-07-23T12:38:23;39.00;19.00
57410;DHT22;46044;44.738;20.394;2022-07-23T12:40:52;39.00;20.00
57410;DHT22;46044;44.738;20.394;2022-07-23T12:43:25;39.00;19.00
57410;DHT22;46044;44.738;20.394;2022-07-23T12:45:55;39.00;18.00
57410;DHT22;46044;44.738;20.394;2022-07-23T12:48:28;39.00;20.00
57410;DHT22;46044;44.738;20.394;2022-07-23T12:50:56;39.00;21.00
57410;DHT22;46044;44.738;20.394;2022-07-23T12:56:04;39.00;21.00
57410;DHT22;46044;44.738;20.394;2022-07-23T12:58:48;39.00;21.00
57410;DHT22;46044;44.738;20.394;2022-07-23T13:04:08;39.00;20.00
57410;DHT22;46044;44.738;20.394;2022-07-23T13:06:49;39.00;21.00
57410;DHT22;46044;44.738;20.394;2022-07-23T13:09:19;39.00;19.00
57410;DHT22;46044;44.738;20.394;2022-07-23T13:11:47;39.00;20.00
57410;DHT22;46044;44.738;20.394;2022-07-23T13:14:14;39.00;20.00
57410;DHT22;46044;44.738;20.394;2022-07-23T13:16:41;39.00;20.00
57410;DHT22;46044;44.738;20.394;2022-07-23T13:19:07;39.00;19.00
57410;DHT22;46044;44.738;20.394;2022-07-23T13:21:33;39.00;18.00
57410;DHT22;46044;44.738;20.394;2022-07-23T13:23:59;39.00;18.00
57410;DHT22;46044;44.738;20.394;2022-07-23T13:26:25;39.00;19.00
57410;DHT22;46044;44.738;20.394;2022-07-23T13:28:51;39.00;18.00
57410;DHT22;46044;44.738;20.394;2022-07-23T13:31:18;39.00;18.00
57410;DHT22;46044;44.738;20.394;2022-07-23T13:33:44;39.00;19.00
57410;DHT22;46044;44.738;20.394;2022-07-23T13:36:10;39.00;19.00
57410;DHT22;46044;44.738;20.394;2022-07-23T13:38:35;39.00;19.00
57410;DHT22;46044;44.738;20.394;2022-07-23T13:41:01;39.00;19.00
57410;DHT22;46044;44.738;20.394;2022-07-23T13:43:28;39.00;18.00
57410;DHT22;46044;44.738;20.394;2022-07-23T13:45:54;39.00;18.00
57410;DHT22;46044;44.738;20.394;2022-07-23T13:48:20;39.00;18.00
57410;DHT22;46044;44.738;20.394;2022-07-23T13:50:47;39.00;18.00
57410;DHT22;46044;44.738;20.394;2022-07-23T13:53:18;39.00;19.00
57410;DHT22;46044;44.738;20.394;2022-07-23T13:55:46;39.00;19.00
57410;DHT22;46044;44.738;20.394;2022-07-23T13:58:12;39.00;19.00
57410;DHT22;46044;44.738;20.394;2022-07-23T14:00:41;39.00;20.00
57410;DHT22;46044;44.738;20.394;2022-07-23T14:03:08;39.00;20.00
57410;DHT22;46044;44.738;20.394;2022-07-23T14:05:33;39.00;19.00
57410;DHT22;46044;44.738;20.394;2022-07-23T14:07:59;39.00;17.00
57410;DHT22;46044;44.738;20.394;2022-07-23T14:10:25;39.00;17.00
57410;DHT22;46044;44.738;20.394;2022-07-23T14:12:52;39.00;18.00
57410;DHT22;46044;44.738;20.394;2022-07-23T14:15:20;38.00;18.00
57410;DHT22;46044;44.738;20.394;2022-07-23T14:17:46;39.00;20.00
57410;DHT22;46044;44.738;20.394;2022-07-23T14:20:16;39.00;19.00
57410;DHT22;46044;44.738;20.394;2022-07-23T14:22:42;39.00;17.00
57410;DHT22;46044;44.738;20.394;2022-07-23T14:25:09;39.00;18.00
57410;DHT22;46044;44.738;20.394;2022-07-23T14:27:35;38.00;17.00
57410;DHT22;46044;44.738;20.394;2022-07-23T14:30:04;38.00;16.00
57410;DHT22;46044;44.738;20.394;2022-07-23T14:32:30;38.00;17.00
57410;DHT22;46044;44.738;20.394;2022-07-23T14:34:56;38.00;18.00
57410;DHT22;46044;44.738;20.394;2022-07-23T14:37:22;38.00;18.00
57410;DHT22;46044;44.738;20.394;2022-07-23T14:39:48;38.00;17.00
57410;DHT22;46044;44.738;20.394;2022-07-23T14:42:14;38.00;17.00
57410;DHT22;46044;44.738;20.394;2022-07-23T14:44:40;38.00;18.00
57410;DHT22;46044;44.738;20.394;2022-07-23T14:47:08;38.00;19.00
57410;DHT22;46044;44.738;20.394;2022-07-23T14:49:34;38.00;17.00
57410;DHT22;46044;44.738;20.394;2022-07-23T14:52:00;38.00;18.00
57410;DHT22;46044;44.738;20.394;2022-07-23T14:54:26;38.00;18.00
57410;DHT22;46044;44.738;20.394;2022-07-23T14:56:57;38.00;18.00
57410;DHT22;46044;44.738;20.394;2022-07-23T14:59:23;38.00;18.00
57410;DHT22;46044;44.738;20.394;2022-07-23T15:01:49;38.00;18.00
57410;DHT22;46044;44.738;20.394;2022-07-23T15:04:15;38.00;18.00
57410;DHT22;46044;44.738;20.394;2022-07-23T15:06:41;38.00;19.00
57410;DHT22;46044;44.738;20.394;2022-07-23T15:09:07;38.00;19.00
57410;DHT22;46044;44.738;20.394;2022-07-23T15:11:33;38.00;19.00
57410;DHT22;46044;44.738;20.394;2022-07-23T15:14:07;38.00;19.00
57410;DHT22;46044;44.738;20.394;2022-07-23T15:16:34;38.00;19.00
57410;DHT22;46044;44.738;20.394;2022-07-23T15:19:00;38.00;19.00
57410;DHT22;46044;44.738;20.394;2022-07-23T15:21:27;38.00;20.00
57410;DHT22;46044;44.738;20.394;2022-07-23T15:23:55;38.00;20.00
57410;DHT22;46044;44.738;20.394;2022-07-23T15:26:21;38.00;20.00
57410;DHT22;46044;44.738;20.394;2022-07-23T15:28:49;38.00;20.00
57410;DHT22;46044;44.738;20.394;2022-07-23T15:31:15;38.00;20.00
57410;DHT22;46044;44.738;20.394;2022-07-23T15:33:41;38.00;20.00
57410;DHT22;46044;44.738;20.394;2022-07-23T15:36:07;38.00;21.00
57410;DHT22;46044;44.738;20.394;2022-07-23T15:38:33;38.00;20.00
57410;DHT22;46044;44.738;20.394;2022-07-23T15:40:59;38.00;21.00
57410;DHT22;46044;44.738;20.394;2022-07-23T15:43:25;38.00;21.00
57410;DHT22;46044;44.738;20.394;2022-07-23T15:45:52;38.00;21.00
57410;DHT22;46044;44.738;20.394;2022-07-23T15:48:19;38.00;20.00
57410;DHT22;46044;44.738;20.394;2022-07-23T15:50:46;38.00;22.00
57410;DHT22;46044;44.738;20.394;2022-07-23T15:53:12;38.00;21.00
57410;DHT22;46044;44.738;20.394;2022-07-23T15:55:39;38.00;21.00
57410;DHT22;46044;44.738;20.394;2022-07-23T15:58:05;38.00;21.00
57410;DHT22;46044;44.738;20.394;2022-07-23T16:00:31;38.00;21.00